Time;durP1;ratioP1;P1;durP2;ratioP2;P2;SDS_P1;SDS_P2;PMS_P1;PMS_P2;Temp;Humidity;BMP_temperature;BMP_pressure;BME280_temperature;BME280_humidity;BME280_pressure;Samples;Min_cycle;Max_cycle;Signal;HPM_P1;HPM_P2
2022/09/04 00:02:16;;;;;;;;;;;;;;;;;;5029484;28;20314;-87
2022/09/04 00:04:42;;;;;;;;;;;;;;;;;;5011112;28;19912;-87
2022/09/04 00:07:07;;;;;;;;;;;;;;;;;;5028144;28;19924;-87
2022/09/04 00:09:32;;;;;;;;;;;;;;;;;;5029366;28;19917;-87
2022/09/04 00:11:57;;;;;;;;;;;;;;;;;;5028674;28;19917;-87
2022/09/04 00:14:23;;;;;;;;;;;;;;;;;;5027869;28;20008;-87
2022/09/04 00:16:49;;;;;;;;;;;;;;;;;;5026886;28;20389;-87
2022/09/04 00:19:15;;;;;;;;;;;;;;;;;;5029148;28;19917;-87
2022/09/04 00:21:42;;;;;;;;;;;;;;;;;;5027243;28;19959;-87
2022/09/04 00:24:07;;;;;;;;;;;;;;;;;;5025925;28;20020;-87
2022/09/04 00:26:32;;;;;;;;;;;;;;;;;;5025368;28;20019;-87
2022/09/04 00:28:58;;;;;;;;;;;;;;;;;;5028605;28;20405;-87
2022/09/04 00:31:24;;;;;;;;;;;;;;;;;;5025065;28;19913;-87
2022/09/04 00:33:49;;;;;;;;;;;;;;;;;;5026607;28;19925;-87
2022/09/04 00:36:16;;;;;;;;;;;;;;;;;;5027791;28;19925;-87
2022/09/04 00:38:41;;;;;;;;;;;;;;;;;;5026242;28;19923;-86
2022/09/04 00:41:06;;;;;;;;;;;;;;;;;;5026609;28;19917;-87
2022/09/04 00:43:31;;;;;;;;;;;;;;;;;;5025313;28;20410;-86
2022/09/04 00:45:57;;;;;;;;;;;;;;;;;;5029379;28;19921;-87
2022/09/04 00:48:23;;;;;;;;;;;;;;;;;;5026575;28;19913;-87
2022/09/04 00:50:49;;;;;;;;;;;;;;;;;;5025572;28;19913;-87
2022/09/04 00:53:14;;;;;;;;;;;;;;;;;;5027397;28;19913;-87
2022/09/04 00:55:39;;;;;;;;;;;;;;;;;;5026259;28;20012;-86
2022/09/04 00:58:04;;;;;;;;;;;;;;;;;;5027524;28;19914;-87
2022/09/04 01:00:29;;;;;;;;;;;;;;;;;;5027935;28;20000;-87
2022/09/04 01:02:55;;;;;;;;;;;;;;;;;;5026210;28;20791;-87
2022/09/04 01:05:20;;;;;;;;;;;;;;;;;;5028286;28;20318;-86
2022/09/04 01:07:45;;;;;;;;;;;;;;;;;;5026141;28;19923;-87
2022/09/04 01:10:10;;;;;;;;;;;;;;;;;;5025630;28;19917;-87
2022/09/04 01:12:35;;;;;;;;;;;;;;;;;;5026248;28;20371;-87
2022/09/04 01:15:01;;;;;;;;;;;;;;;;;;5025711;28;19928;-87
2022/09/04 01:17:26;;;;;;;;;;;;;;;;;;5028245;28;19917;-86
2022/09/04 01:19:51;;;;;;;;;;;;;;;;;;5028477;28;19913;-87
2022/09/04 01:22:16;;;;;;;;;;;;;;;;;;5026767;28;20287;-87
2022/09/04 01:24:42;;;;;;;;;;;;;;;;;;5024656;28;19921;-90
2022/09/04 01:27:07;;;;;;;;;;;;;;;;;;5026541;28;20056;-89
2022/09/04 01:29:32;;;;;;;;;;;;;;;;;;5026773;28;19924;-89
2022/09/04 01:31:57;;;;;;;;;;;;;;;;;;5029689;28;20355;-88
2022/09/04 01:34:22;;;;;;;;;;;;;;;;;;5029399;28;20001;-91
2022/09/04 01:36:47;;;;;;;;;;;;;;;;;;5029212;28;20360;-88
2022/09/04 01:39:13;;;;;;;;;;;;;;;;;;5027147;28;19959;-88
2022/09/04 01:41:38;;;;;;;;;;;;;;;;;;5024294;28;20295;-88
2022/09/04 01:44:03;;;;;;;;;;;;;;;;;;5028285;28;19920;-88
2022/09/04 01:46:28;;;;;;;;;;;;;;;;;;5028725;28;19913;-88
2022/09/04 01:48:54;;;;;;;;;;;;;;;;;;5028829;28;19917;-88
2022/09/04 01:51:19;;;;;;;;;;;;;;;;;;5026780;28;20130;-89
2022/09/04 01:53:44;;;;;;;;;;;;;;;;;;5022829;28;19952;-88
2022/09/04 01:56:10;;;;;;;;;;;;;;;;;;5030719;28;19940;-89
2022/09/04 01:58:35;;;;;;;;;;;;;;;;;;5013978;28;19964;-89
2022/09/04 02:01:00;;;;;;;;;;;;;;;;;;5027211;28;19921;-88
2022/09/04 02:03:25;;;;;;;;;;;;;;;;;;5027480;28;20366;-88
2022/09/04 02:05:50;;;;;;;;;;;;;;;;;;5028979;28;19913;-89
2022/09/04 02:08:16;;;;;;;;;;;;;;;;;;5023336;28;20000;-88
2022/09/04 02:10:41;;;;;;;;;;;;;;;;;;5024614;28;19921;-89
2022/09/04 02:13:06;;;;;;;;;;;;;;;;;;5029045;28;20530;-88
2022/09/04 02:15:32;;;;;;;;;;;;;;;;;;5026982;28;19917;-88
2022/09/04 02:17:57;;;;;;;;;;;;;;;;;;5028069;28;19924;-90
2022/09/04 02:20:22;;;;;;;;;;;;;;;;;;5026775;28;19980;-89
2022/09/04 02:22:47;;;;;;;;;;;;;;;;;;5027386;28;19960;-89
2022/09/04 02:25:13;;;;;;;;;;;;;;;;;;5030864;28;20207;-88
2022/09/04 02:27:38;;;;;;;;;;;;;;;;;;5033069;28;19914;-89
2022/09/04 02:30:03;;;;;;;;;;;;;;;;;;5023075;28;19967;-88
2022/09/04 02:32:28;;;;;;;;;;;;;;;;;;5028604;28;19940;-88
2022/09/04 02:34:53;;;;;;;;;;;;;;;;;;5029015;28;19971;-89
2022/09/04 02:37:18;;;;;;;;;;;;;;;;;;5028105;28;19913;-88
2022/09/04 02:39:44;;;;;;;;;;;;;;;;;;5028030;28;19978;-88
2022/09/04 02:42:09;;;;;;;;;;;;;;;;;;5029354;28;20379;-89
2022/09/04 02:44:34;;;;;;;;;;;;;;;;;;5021456;28;19921;-89
2022/09/04 02:46:59;;;;;;;;;;;;;;;;;;5011017;28;19913;-88
2022/09/04 02:49:25;;;;;;;;;;;;;;;;;;5023253;28;19917;-89
2022/09/04 02:51:51;;;;;;;;;;;;;;;;;;5026548;28;19921;-88
2022/09/04 02:54:16;;;;;;;;;;;;;;;;;;5025392;28;19998;-88
2022/09/04 02:56:42;;;;;;;;;;;;;;;;;;5027398;28;20000;-88
2022/09/04 02:59:07;;;;;;;;;;;;;;;;;;5028981;28;20405;-89
2022/09/04 03:01:33;;;;;;;;;;;;;;;;;;5025518;28;20326;-88
2022/09/04 03:03:58;;;;;;;;;;;;;;;;;;5026031;28;19914;-88
2022/09/04 03:06:23;;;;;;;;;;;;;;;;;;5027639;28;19921;-88
2022/09/04 03:08:48;;;;;;;;;;;;;;;;;;5028813;28;20430;-88
2022/09/04 03:11:13;;;;;;;;;;;;;;;;;;5010389;28;20598;-89
2022/09/04 03:13:38;;;;;;;;;;;;;;;;;;5027604;28;19921;-88
2022/09/04 03:16:04;;;;;;;;;;;;;;;;;;5026795;28;20411;-89
2022/09/04 03:18:29;;;;;;;;;;;;;;;;;;5026286;28;19920;-88
2022/09/04 03:20:54;;;;;;;;;;;;;;;;;;5025160;28;19924;-88
2022/09/04 03:23:19;;;;;;;;;;;;;;;;;;5024743;28;19939;-88
2022/09/04 03:25:44;;;;;;;;;;;;;;;;;;5021221;28;20043;-88
2022/09/04 03:28:09;;;;;;;;;;;;;;;;;;5021768;28;20341;-89
2022/09/04 03:30:35;;;;;;;;;;;;;;;;;;5021312;28;20016;-88
2022/09/04 03:33:02;;;;;;;;;;;;;;;;;;5020303;28;20633;-89
2022/09/04 03:35:27;;;;;;;;;;;;;;;;;;5022051;28;20035;-89
2022/09/04 03:37:53;;;;;;;;;;;;;;;;;;5024548;28;20454;-88
2022/09/04 03:40:18;;;;;;;;;;;;;;;;;;5019408;28;19913;-88
2022/09/04 03:42:43;;;;;;;;;;;;;;;;;;5017465;28;19975;-90
2022/09/04 03:45:08;;;;;;;;;;;;;;;;;;5022525;28;19913;-88
2022/09/04 03:47:33;;;;;;;;;;;;;;;;;;5024992;28;19990;-88
2022/09/04 03:49:58;;;;;;;;;;;;;;;;;;5025196;28;19925;-88
2022/09/04 03:52:24;;;;;;;;;;;;;;;;;;5020342;28;20328;-88
2022/09/04 03:54:49;;;;;;;;;;;;;;;;;;5023297;28;19913;-88
2022/09/04 03:57:14;;;;;;;;;;;;;;;;;;5021154;28;19952;-88
2022/09/04 03:59:39;;;;;;;;;;;;;;;;;;5020048;28;19917;-88
2022/09/04 04:02:05;;;;;;;;;;;;;;;;;;5023219;28;19913;-89
2022/09/04 04:04:34;;;;;;;;;;;;;;;;;;5024378;28;19913;-89
2022/09/04 04:07:00;;;;;;;;;;;;;;;;;;5022212;28;19920;-88
2022/09/04 04:09:25;;;;;;;;;;;;;;;;;;5022749;28;20278;-88
2022/09/04 04:11:52;;;;;;;;;;;;;;;;;;5027282;28;19993;-89
2022/09/04 04:14:17;;;;;;;;;;;;;;;;;;5019254;28;20279;-88
2022/09/04 04:16:42;;;;;;;;;;;;;;;;;;5022924;28;20085;-89
2022/09/04 04:19:09;;;;;;;;;;;;;;;;;;5026267;28;19927;-88
2022/09/04 04:21:34;;;;;;;;;;;;;;;;;;5024789;28;20381;-90
2022/09/04 04:24:00;;;;;;;;;;;;;;;;;;5024587;28;20011;-88
2022/09/04 04:26:25;;;;;;;;;;;;;;;;;;5028441;28;19917;-88
2022/09/04 04:28:58;;;;;;;;;;;;;;;;;;5025736;28;19924;-88
2022/09/04 04:31:23;;;;;;;;;;;;;;;;;;5025360;28;19924;-89
2022/09/04 04:33:48;;;;;;;;;;;;;;;;;;5022613;28;19946;-88
2022/09/04 04:36:14;;;;;;;;;;;;;;;;;;5027543;28;20058;-88
2022/09/04 04:38:40;;;;;;;;;;;;;;;;;;5023643;28;19917;-88
2022/09/04 04:41:05;;;;;;;;;;;;;;;;;;5027079;28;20359;-89
2022/09/04 04:43:30;;;;;;;;;;;;;;;;;;5023626;28;20395;-88
2022/09/04 04:45:55;;;;;;;;;;;;;;;;;;5024787;28;19932;-88
2022/09/04 04:48:22;;;;;;;;;;;;;;;;;;5025513;28;19952;-88
2022/09/04 04:50:48;;;;;;;;;;;;;;;;;;5027250;28;19925;-88
2022/09/04 04:53:13;;;;;;;;;;;;;;;;;;5024730;28;19978;-89
2022/09/04 04:55:38;;;;;;;;;;;;;;;;;;5027637;28;19913;-89
2022/09/04 04:58:04;;;;;;;;;;;;;;;;;;5026415;28;20055;-89
2022/09/04 05:00:29;;;;;;;;;;;;;;;;;;5022726;28;19943;-88
2022/09/04 05:02:54;;;;;;;;;;;;;;;;;;5022529;28;19915;-88
2022/09/04 05:05:22;;;;;;;;;;;;;;;;;;5019615;28;20312;-88
2022/09/04 05:07:47;;;;;;;;;;;;;;;;;;5024730;28;19913;-88
2022/09/04 05:10:13;;;;;;;;;;;;;;;;;;5009982;28;19923;-88
2022/09/04 05:12:38;;;;;;;;;;;;;;;;;;5024165;28;19921;-90
2022/09/04 05:15:03;;;;;;;;;;;;;;;;;;5026155;28;19967;-88
2022/09/04 05:17:43;;;;;;;;;;;;;;;;;;5046600;28;19952;-88
2022/09/04 05:20:09;;;;;;;;;;;;;;;;;;5045843;28;19949;-88
2022/09/04 05:22:34;;;;;;;;;;;;;;;;;;5040385;28;20383;-88
2022/09/04 05:24:59;;;;;;;;;;;;;;;;;;5042114;28;19920;-89
2022/09/04 05:27:24;;;;;;;;;;;;;;;;;;5045791;28;19933;-89
2022/09/04 05:29:50;;;;;;;;;;;;;;;;;;5044627;28;20343;-88
2022/09/04 05:32:15;;;;;;;;;;;;;;;;;;5048199;28;19916;-88
2022/09/04 05:34:40;;;;;;;;;;;;;;;;;;5043080;28;19913;-88
2022/09/04 05:37:05;;;;;;;;;;;;;;;;;;5042559;28;20283;-88
2022/09/04 05:39:31;;;;;;;;;;;;;;;;;;5045634;28;20011;-88
2022/09/04 05:41:56;;;;;;;;;;;;;;;;;;5044234;28;20486;-88
2022/09/04 05:44:21;;;;;;;;;;;;;;;;;;5042480;28;20363;-88
2022/09/04 05:46:47;;;;;;;;;;;;;;;;;;5043475;28;20004;-88
2022/09/04 05:49:12;;;;;;;;;;;;;;;;;;5048166;28;20059;-87
2022/09/04 05:51:37;;;;;;;;;;;;;;;;;;5045046;28;19913;-88
2022/09/04 05:54:02;;;;;;;;;;;;;;;;;;5042446;28;20007;-88
2022/09/04 05:56:27;;;;;;;;;;;;;;;;;;5041378;28;20426;-89
2022/09/04 05:58:53;;;;;;;;;;;;;;;;;;5045630;28;19913;-88
2022/09/04 06:01:21;;;;;;;;;;;;;;;;;;5042995;28;19943;-88
2022/09/04 06:03:47;;;;;;;;;;;;;;;;;;5045330;28;19983;-89
2022/09/04 06:06:12;;;;;;;;;;;;;;;;;;5042055;28;19967;-89
2022/09/04 06:08:37;;;;;;;;;;;;;;;;;;5044214;28;19921;-88
2022/09/04 06:11:02;;;;;;;;;;;;;;;;;;5039578;28;19938;-88
2022/09/04 06:13:27;;;;;;;;;;;;;;;;;;5046542;28;19927;-88
2022/09/04 06:15:53;;;;;;;;;;;;;;;;;;5054280;28;19916;-88
2022/09/04 06:18:18;;;;;;;;;;;;;;;;;;5059445;28;19935;-88
2022/09/04 06:20:43;;;;;;;;;;;;;;;;;;5062971;28;20007;-88
2022/09/04 06:23:08;;;;;;;;;;;;;;;;;;5061688;28;19913;-88
2022/09/04 06:25:33;;;;;;;;;;;;;;;;;;5065298;28;19935;-88
2022/09/04 06:27:58;;;;;;;;;;;;;;;;;;5058766;28;20012;-89
2022/09/04 06:30:23;;;;;;;;;;;;;;;;;;5049748;28;19916;-89
2022/09/04 06:32:49;;;;;;;;;;;;;;;;;;5053979;28;19913;-88
2022/09/04 06:35:14;;;;;;;;;;;;;;;;;;5047581;28;19959;-88
2022/09/04 06:37:39;;;;;;;;;;;;;;;;;;5045711;28;19917;-88
2022/09/04 06:40:04;;;;;;;;;;;;;;;;;;5047138;28;19963;-88
2022/09/04 06:42:29;;;;;;;;;;;;;;;;;;5049314;28;19913;-88
2022/09/04 06:44:55;;;;;;;;;;;;;;;;;;5052437;28;20003;-89
2022/09/04 06:47:20;;;;;;;;;;;;;;;;;;5053499;28;19920;-89
2022/09/04 06:49:45;;;;;;;;;;;;;;;;;;5048227;28;20008;-88
2022/09/04 06:52:11;;;;;;;;;;;;;;;;;;5051344;28;19966;-88
2022/09/04 06:54:37;;;;;;;;;;;;;;;;;;5051240;28;19936;-89
2022/09/04 06:57:02;;;;;;;;;;;;;;;;;;5051041;28;20390;-88
2022/09/04 06:59:27;;;;;;;;;;;;;;;;;;5042387;28;19913;-89
2022/09/04 07:01:53;;;;;;;;;;;;;;;;;;5049775;28;19913;-88
2022/09/04 07:04:18;;;;;;;;;;;;;;;;;;5053408;28;19917;-89
2022/09/04 07:06:43;;;;;;;;;;;;;;;;;;5054657;28;20635;-89
2022/09/04 07:09:08;;;;;;;;;;;;;;;;;;5044290;28;19912;-89
2022/09/04 07:11:33;;;;;;;;;;;;;;;;;;5045716;28;19913;-88
2022/09/04 07:13:59;;;;;;;;;;;;;;;;;;5048076;28;19923;-89
2022/09/04 07:16:24;;;;;;;;;;;;;;;;;;5047656;28;19917;-88
2022/09/04 07:18:49;;;;;;;;;;;;;;;;;;5047527;28;19909;-89
2022/09/04 07:21:15;;;;;;;;;;;;;;;;;;5048732;28;20386;-89
2022/09/04 07:23:40;;;;;;;;;;;;;;;;;;5049108;28;19912;-89
2022/09/04 07:26:05;;;;;;;;;;;;;;;;;;5054515;28;20373;-88
2022/09/04 07:28:30;;;;;;;;;;;;;;;;;;5050780;28;19913;-89
2022/09/04 07:30:55;;;;;;;;;;;;;;;;;;5033330;28;20015;-88
2022/09/04 07:33:20;;;;;;;;;;;;;;;;;;5052084;28;20016;-88
2022/09/04 07:35:46;;;;;;;;;;;;;;;;;;5047608;28;19925;-89
2022/09/04 07:38:11;;;;;;;;;;;;;;;;;;5028467;28;19982;-88
2022/09/04 07:40:36;;;;;;;;;;;;;;;;;;5047182;28;19952;-89
2022/09/04 07:43:01;;;;;;;;;;;;;;;;;;5042202;28;20298;-88
2022/09/04 07:45:28;;;;;;;;;;;;;;;;;;5037382;28;20374;-89
2022/09/04 07:47:54;;;;;;;;;;;;;;;;;;5039991;28;19916;-88
2022/09/04 07:50:19;;;;;;;;;;;;;;;;;;5047019;28;19921;-88
2022/09/04 07:52:44;;;;;;;;;;;;;;;;;;5054301;28;19912;-89
2022/09/04 07:55:09;;;;;;;;;;;;;;;;;;5050285;28;19916;-89
2022/09/04 07:57:34;;;;;;;;;;;;;;;;;;5048772;28;19921;-89
2022/09/04 08:00:00;;;;;;;;;;;;;;;;;;5044979;28;19919;-89
2022/09/04 08:02:25;;;;;;;;;;;;;;;;;;5043131;28;20309;-89
2022/09/04 08:04:50;;;;;;;;;;;;;;;;;;5044487;28;19913;-89
2022/09/04 08:07:15;;;;;;;;;;;;;;;;;;5050903;28;19959;-89
2022/09/04 08:09:40;;;;;;;;;;;;;;;;;;5053568;28;19913;-90
2022/09/04 08:12:05;;;;;;;;;;;;;;;;;;5051345;28;19913;-89
2022/09/04 08:14:31;;;;;;;;;;;;;;;;;;5050009;28;20007;-90
2022/09/04 08:16:56;;;;;;;;;;;;;;;;;;5048263;28;19917;-89
2022/09/04 08:19:21;;;;;;;;;;;;;;;;;;5039521;28;19948;-89
2022/09/04 08:21:47;;;;;;;;;;;;;;;;;;5040680;28;19967;-89
2022/09/04 08:24:12;;;;;;;;;;;;;;;;;;5050401;28;19912;-89
2022/09/04 08:26:37;;;;;;;;;;;;;;;;;;5043177;28;19916;-89
2022/09/04 08:29:02;;;;;;;;;;;;;;;;;;5050204;28;19913;-88
2022/09/04 08:31:28;;;;;;;;;;;;;;;;;;5055932;28;19915;-89
2022/09/04 08:33:53;;;;;;;;;;;;;;;;;;5058841;28;20003;-89
2022/09/04 08:36:18;;;;;;;;;;;;;;;;;;5048128;28;19925;-89
2022/09/04 08:38:43;;;;;;;;;;;;;;;;;;5050740;28;19996;-89
2022/09/04 08:41:08;;;;;;;;;;;;;;;;;;5045228;28;19909;-89
2022/09/04 08:43:34;;;;;;;;;;;;;;;;;;5043736;28;20383;-89
2022/09/04 08:45:59;;;;;;;;;;;;;;;;;;5046807;28;20375;-89
2022/09/04 08:48:24;;;;;;;;;;;;;;;;;;5052106;28;19913;-89
2022/09/04 08:50:50;;;;;;;;;;;;;;;;;;5052082;28;19999;-90
2022/09/04 08:53:16;;;;;;;;;;;;;;;;;;5052688;28;20011;-89
2022/09/04 08:55:44;;;;;;;;;;;;;;;;;;5050769;28;19990;-89
2022/09/04 08:58:10;;;;;;;;;;;;;;;;;;5035393;28;20310;-89
2022/09/04 09:00:35;;;;;;;;;;;;;;;;;;5046684;28;19913;-88
2022/09/04 09:03:00;;;;;;;;;;;;;;;;;;5042147;28;19920;-89
2022/09/04 09:05:25;;;;;;;;;;;;;;;;;;5050909;28;19913;-88
2022/09/04 09:07:50;;;;;;;;;;;;;;;;;;5035298;28;19913;-89
2022/09/04 09:10:16;;;;;;;;;;;;;;;;;;5043539;28;19908;-89
2022/09/04 09:12:41;;;;;;;;;;;;;;;;;;5050849;28;19948;-89
2022/09/04 09:15:06;;;;;;;;;;;;;;;;;;5050738;28;19909;-89
2022/09/04 09:17:31;;;;;;;;;;;;;;;;;;5050091;28;20344;-88
2022/09/04 09:19:56;;;;;;;;;;;;;;;;;;5050172;28;19913;-89
2022/09/04 09:22:21;;;;;;;;;;;;;;;;;;5061033;28;20007;-89
2022/09/04 09:24:46;;;;;;;;;;;;;;;;;;5060878;28;19909;-90
2022/09/04 09:27:12;;;;;;;;;;;;;;;;;;5070744;28;19916;-88
2022/09/04 09:29:37;;;;;;;;;;;;;;;;;;5062982;28;19951;-89
2022/09/04 09:32:02;;;;;;;;;;;;;;;;;;5050707;28;19960;-90
2022/09/04 09:34:27;;;;;;;;;;;;;;;;;;5037633;28;19998;-89
2022/09/04 09:36:52;;;;;;;;;;;;;;;;;;5050631;28;19919;-89
2022/09/04 09:39:18;;;;;;;;;;;;;;;;;;5032634;28;19915;-88
2022/09/04 09:41:44;;;;;;;;;;;;;;;;;;5050661;28;20302;-88
2022/09/04 09:44:09;;;;;;;;;;;;;;;;;;5050195;28;20505;-88
2022/09/04 09:46:35;;;;;;;;;;;;;;;;;;5063925;28;19915;-89
2022/09/04 09:49:01;;;;;;;;;;;;;;;;;;5050736;28;20259;-90
2022/09/04 09:51:26;;;;;;;;;;;;;;;;;;5050541;28;20198;-89
2022/09/04 09:53:51;;;;;;;;;;;;;;;;;;5049071;28;19916;-89
2022/09/04 09:56:19;;;;;;;;;;;;;;;;;;5050401;28;19913;-89
2022/09/04 09:58:44;;;;;;;;;;;;;;;;;;5058034;28;19991;-89
2022/09/04 10:01:09;;;;;;;;;;;;;;;;;;5044805;28;19952;-89
2022/09/04 10:03:34;;;;;;;;;;;;;;;;;;5027399;28;20286;-89
2022/09/04 10:05:59;;;;;;;;;;;;;;;;;;5059530;28;19908;-89
2022/09/04 10:08:26;;;;;;;;;;;;;;;;;;5054119;28;19974;-89
2022/09/04 10:10:51;;;;;;;;;;;;;;;;;;5054061;28;19908;-89
2022/09/04 10:13:16;;;;;;;;;;;;;;;;;;5054093;28;19925;-90
2022/09/04 10:15:41;;;;;;;;;;;;;;;;;;5043229;28;19943;-89
2022/09/04 10:18:06;;;;;;;;;;;;;;;;;;5074082;28;20003;-89
2022/09/04 10:20:32;;;;;;;;;;;;;;;;;;5073612;28;20389;-90
2022/09/04 10:22:57;;;;;;;;;;;;;;;;;;5060776;28;19948;-88
2022/09/04 10:25:22;;;;;;;;;;;;;;;;;;5053549;28;20000;-90
2022/09/04 10:27:48;;;;;;;;;;;;;;;;;;5053566;28;20023;-89
2022/09/04 11:11:43;;;;;;;;;;;;;;;;;;4939675;28;19981;-89
2022/09/04 11:14:09;;;;;;;;;;;;;;;;;;4945618;28;20369;-89
2022/09/04 11:16:34;;;;;;;;;;;;;;;;;;4933053;29;20315;-88
2022/09/04 11:18:59;;;;;;;;;;;;;;;;;;4931508;29;19947;-89
2022/09/04 11:21:26;;;;;;;;;;;;;;;;;;4927585;29;19953;-88
2022/09/04 11:23:51;;;;;;;;;;;;;;;;;;4926781;29;19954;-88
2022/09/04 11:26:16;;;;;;;;;;;;;;;;;;4935163;29;20017;-89
2022/09/04 11:28:43;;;;;;;;;;;;;;;;;;4933858;29;19911;-87
2022/09/04 11:31:08;;;;;;;;;;;;;;;;;;4926672;29;20353;-88
2022/09/04 11:33:36;;;;;;;;;;;;;;;;;;4922750;29;19922;-88
2022/09/04 11:36:04;;;;;;;;;;;;;;;;;;4918031;29;19926;-88
2022/09/04 11:38:29;;;;;;;;;;;;;;;;;;4919636;29;20061;-88
2022/09/04 11:40:54;;;;;;;;;;;;;;;;;;4918099;29;19991;-87
2022/09/04 11:43:21;;;;;;;;;;;;;;;;;;4918005;29;20214;-87
2022/09/04 11:45:47;;;;;;;;;;;;;;;;;;4912641;29;20621;-87
2022/09/04 11:48:12;;;;;;;;;;;;;;;;;;4916096;29;19973;-88
2022/09/04 11:50:37;;;;;;;;;;;;;;;;;;4924013;29;19924;-88
2022/09/04 11:53:04;;;;;;;;;;;;;;;;;;4921561;29;19977;-87
2022/09/04 11:55:29;;;;;;;;;;;;;;;;;;4927420;29;20114;-87
2022/09/04 11:57:54;;;;;;;;;;;;;;;;;;4937942;28;19965;-88
2022/09/04 12:00:19;;;;;;;;;;;;;;;;;;4920058;29;19925;-87
2022/09/04 12:02:44;;;;;;;;;;;;;;;;;;4921609;29;20123;-88
2022/09/04 12:05:09;;;;;;;;;;;;;;;;;;4917224;29;19919;-87
2022/09/04 12:07:35;;;;;;;;;;;;;;;;;;4920416;29;19919;-88
2022/09/04 12:10:00;;;;;;;;;;;;;;;;;;4918131;29;19926;-87
2022/09/04 12:12:25;;;;;;;;;;;;;;;;;;4935502;28;19925;-88
2022/09/04 12:14:50;;;;;;;;;;;;;;;;;;4925742;29;19971;-88
2022/09/04 12:17:16;;;;;;;;;;;;;;;;;;4922850;29;19919;-88
2022/09/04 12:19:41;;;;;;;;;;;;;;;;;;4918359;29;20403;-88
2022/09/04 12:22:06;;;;;;;;;;;;;;;;;;4924144;29;20300;-88
2022/09/04 12:24:32;;;;;;;;;;;;;;;;;;4928246;29;19918;-87
2022/09/04 12:26:57;;;;;;;;;;;;;;;;;;4923824;29;20057;-87
2022/09/04 12:29:22;;;;;;;;;;;;;;;;;;4922906;29;20293;-88
2022/09/04 12:31:49;;;;;;;;;;;;;;;;;;4929850;28;20017;-88
2022/09/04 12:34:15;;;;;;;;;;;;;;;;;;4919271;29;19916;-88
2022/09/04 12:36:41;;;;;;;;;;;;;;;;;;4922461;29;20098;-88
2022/09/04 12:39:06;;;;;;;;;;;;;;;;;;4921621;29;19923;-87
2022/09/04 12:41:31;;;;;;;;;;;;;;;;;;4920728;29;19926;-87
2022/09/04 12:43:56;;;;;;;;;;;;;;;;;;4922962;29;19995;-88
2022/09/04 12:46:21;;;;;;;;;;;;;;;;;;4920101;29;20312;-87
2022/09/04 12:48:46;;;;;;;;;;;;;;;;;;4922136;29;19925;-87
2022/09/04 12:51:12;;;;;;;;;;;;;;;;;;4922950;29;19919;-87
2022/09/04 12:53:42;;;;;;;;;;;;;;;;;;4932829;28;19926;-87
2022/09/04 12:56:09;;;;;;;;;;;;;;;;;;4915640;29;20470;-87
2022/09/04 12:58:34;;;;;;;;;;;;;;;;;;4913834;29;19930;-87
2022/09/04 13:00:59;;;;;;;;;;;;;;;;;;4919073;29;19955;-89
2022/09/04 13:03:24;;;;;;;;;;;;;;;;;;4914855;29;19926;-88
2022/09/04 13:05:49;;;;;;;;;;;;;;;;;;4922032;29;19961;-88
2022/09/04 13:08:18;;;;;;;;;;;;;;;;;;4915523;29;19919;-87
2022/09/04 13:10:43;;;;;;;;;;;;;;;;;;4922287;29;20361;-87
2022/09/04 13:13:08;;;;;;;;;;;;;;;;;;4930157;29;19975;-87
2022/09/04 13:15:33;;;;;;;;;;;;;;;;;;4918602;29;19927;-88
2022/09/04 13:17:58;;;;;;;;;;;;;;;;;;4913521;29;20000;-88
2022/09/04 13:20:23;;;;;;;;;;;;;;;;;;4919382;29;19942;-88
2022/09/04 13:22:49;;;;;;;;;;;;;;;;;;4920432;29;19915;-88
2022/09/04 13:25:14;;;;;;;;;;;;;;;;;;4921503;29;19946;-88
2022/09/04 13:27:39;;;;;;;;;;;;;;;;;;4935228;28;19915;-88
2022/09/04 13:30:04;;;;;;;;;;;;;;;;;;4916061;29;19923;-87
2022/09/04 13:32:30;;;;;;;;;;;;;;;;;;4922478;29;19919;-87
2022/09/04 13:34:57;;;;;;;;;;;;;;;;;;4917330;29;21045;-87
2022/09/04 13:37:22;;;;;;;;;;;;;;;;;;4920951;29;20354;-88
2022/09/04 13:39:47;;;;;;;;;;;;;;;;;;4922097;29;19923;-87
2022/09/04 13:42:13;;;;;;;;;;;;;;;;;;4926510;29;19922;-87
2022/09/04 13:44:39;;;;;;;;;;;;;;;;;;4922304;29;19959;-87
2022/09/04 13:47:04;;;;;;;;;;;;;;;;;;4920000;29;20364;-88
2022/09/04 13:49:30;;;;;;;;;;;;;;;;;;4923559;29;19926;-88
2022/09/04 13:51:58;;;;;;;;;;;;;;;;;;4923365;29;19918;-87
2022/09/04 13:54:24;;;;;;;;;;;;;;;;;;4920879;29;19915;-87
2022/09/04 13:56:49;;;;;;;;;;;;;;;;;;4922707;29;19919;-88
2022/09/04 13:59:15;;;;;;;;;;;;;;;;;;4924243;29;19993;-88
2022/09/04 14:01:44;;;;;;;;;;;;;;;;;;4923708;29;20013;-88
2022/09/04 14:04:10;;;;;;;;;;;;;;;;;;4921682;29;20293;-87
2022/09/04 14:06:35;;;;;;;;;;;;;;;;;;4928774;29;19915;-87
2022/09/04 14:09:03;;;;;;;;;;;;;;;;;;4922149;29;20788;-87
2022/09/04 14:11:29;;;;;;;;;;;;;;;;;;4927287;29;19919;-87
2022/09/04 14:13:54;;;;;;;;;;;;;;;;;;4924188;29;19993;-88
2022/09/04 14:16:22;;;;;;;;;;;;;;;;;;4933902;29;20517;-88
2022/09/04 14:18:47;;;;;;;;;;;;;;;;;;4917725;29;19915;-88
2022/09/04 14:21:12;;;;;;;;;;;;;;;;;;4925575;29;20620;-88
2022/09/04 14:23:38;;;;;;;;;;;;;;;;;;4924512;29;19977;-88
2022/09/04 14:26:03;;;;;;;;;;;;;;;;;;4916357;29;19922;-88
2022/09/04 14:28:28;;;;;;;;;;;;;;;;;;4924959;29;19927;-87
2022/09/04 14:30:54;;;;;;;;;;;;;;;;;;4927757;29;19922;-87
2022/09/04 14:33:20;;;;;;;;;;;;;;;;;;4922017;29;19922;-88
2022/09/04 14:35:49;;;;;;;;;;;;;;;;;;4920170;29;19915;-87
2022/09/04 14:38:14;;;;;;;;;;;;;;;;;;4921342;29;19926;-87
2022/09/04 14:40:40;;;;;;;;;;;;;;;;;;4923221;29;19919;-88
2022/09/04 14:43:06;;;;;;;;;;;;;;;;;;4925125;29;19915;-87
2022/09/04 14:45:31;;;;;;;;;;;;;;;;;;4927239;29;19919;-87
2022/09/04 14:47:56;;;;;;;;;;;;;;;;;;4926535;29;20221;-87
2022/09/04 14:50:22;;;;;;;;;;;;;;;;;;4918519;29;19919;-87
2022/09/04 14:52:47;;;;;;;;;;;;;;;;;;4919977;29;19919;-87
2022/09/04 14:55:12;;;;;;;;;;;;;;;;;;4920007;29;19925;-87
2022/09/04 14:57:37;;;;;;;;;;;;;;;;;;4922767;29;20344;-88
2022/09/04 15:00:03;;;;;;;;;;;;;;;;;;4924426;29;19934;-87
2022/09/04 15:02:29;;;;;;;;;;;;;;;;;;4923075;29;19958;-88
2022/09/04 15:04:56;;;;;;;;;;;;;;;;;;4919989;29;20677;-88
2022/09/04 15:07:23;;;;;;;;;;;;;;;;;;4923377;29;20318;-87
2022/09/04 15:09:49;;;;;;;;;;;;;;;;;;4920031;29;20033;-87
2022/09/04 15:12:14;;;;;;;;;;;;;;;;;;4925388;29;20429;-88
2022/09/04 15:14:39;;;;;;;;;;;;;;;;;;4917026;29;19966;-88
2022/09/04 15:17:04;;;;;;;;;;;;;;;;;;4917991;29;20381;-87
2022/09/04 15:19:30;;;;;;;;;;;;;;;;;;4923505;29;19987;-88
2022/09/04 15:21:55;;;;;;;;;;;;;;;;;;4922070;29;19942;-87
2022/09/04 15:24:20;;;;;;;;;;;;;;;;;;4918051;29;20396;-87
2022/09/04 15:26:45;;;;;;;;;;;;;;;;;;4921920;29;19986;-87
2022/09/04 15:29:10;;;;;;;;;;;;;;;;;;4917080;29;19919;-87
2022/09/04 15:31:37;;;;;;;;;;;;;;;;;;4916318;29;19910;-88
2022/09/04 15:34:02;;;;;;;;;;;;;;;;;;4922702;29;20036;-87
2022/09/04 15:36:27;;;;;;;;;;;;;;;;;;4924214;29;20021;-87
2022/09/04 15:38:52;;;;;;;;;;;;;;;;;;4917583;29;19919;-88
2022/09/04 15:41:18;;;;;;;;;;;;;;;;;;4923163;29;19926;-87
2022/09/04 15:43:43;;;;;;;;;;;;;;;;;;4925050;29;20621;-87
2022/09/04 15:46:12;;;;;;;;;;;;;;;;;;4925924;29;20389;-87
2022/09/04 15:48:37;;;;;;;;;;;;;;;;;;4921617;29;19910;-87
2022/09/04 15:51:02;;;;;;;;;;;;;;;;;;4921917;29;20399;-87
2022/09/04 15:53:27;;;;;;;;;;;;;;;;;;4920496;29;19923;-87
2022/09/04 15:55:52;;;;;;;;;;;;;;;;;;4921838;29;19914;-88
2022/09/04 15:58:18;;;;;;;;;;;;;;;;;;4925651;29;19938;-88
2022/09/04 16:00:43;;;;;;;;;;;;;;;;;;4926211;29;19925;-88
2022/09/04 16:03:10;;;;;;;;;;;;;;;;;;4924712;29;19973;-88
2022/09/04 16:05:47;;;;;;;;;;;;;;;;;;4927547;29;19922;-88
2022/09/04 17:23:34;;;;;;;;;;;;;;;;;;4964383;28;19926;-88
2022/09/04 17:26:08;;;;;;;;;;;;;;;;;;4969580;28;19921;-88
2022/09/04 17:28:35;;;;;;;;;;;;;;;;;;4975090;28;19918;-86
2022/09/04 17:31:00;;;;;;;;;;;;;;;;;;4992198;28;19945;-89
2022/09/04 17:33:26;;;;;;;;;;;;;;;;;;4993191;28;19944;-89
2022/09/04 17:38:49;;;;;;;;;;;;;;;;;;;;;
2022/09/04 17:41:32;;;;;;;;;;;;;;;;;;4972173;28;19917;-88
2022/09/04 17:44:01;;;;;;;;;;;;;;;;;;4965293;28;20407;-89
2022/09/04 17:49:36;;;;;;;;;;;;;;;;;;4972359;28;19941;-89
2022/09/04 17:52:23;;;;;;;;;;;;;;;;;;4987395;28;19922;-89
2022/09/04 17:57:35;;;;;;;;;;;;;;;;;;4969710;28;19918;-89
2022/09/04 18:00:05;;;;;;;;;;;;;;;;;;4972893;28;19985;-90
2022/09/04 18:02:33;;;;;;;;;;;;;;;;;;4973225;28;19914;-88
2022/09/04 18:39:04;;;;;;;;;;;;;;;;;;5061777;28;20014;-89
2022/09/04 18:41:29;;;;;;;;;;;;;;;;;;5067170;28;20350;-90
2022/09/04 18:43:54;;;;;;;;;;;;;;;;;;5045169;28;19920;-89
2022/09/04 18:46:19;;;;;;;;;;;;;;;;;;5058584;28;20418;-90
2022/09/04 18:48:46;;;;;;;;;;;;;;;;;;5056762;28;19912;-89
2022/09/04 18:51:12;;;;;;;;;;;;;;;;;;5060994;28;19948;-89
2022/09/04 18:53:37;;;;;;;;;;;;;;;;;;5058694;28;19958;-89
2022/09/04 18:56:03;;;;;;;;;;;;;;;;;;5063800;28;19978;-89
2022/09/04 18:58:28;;;;;;;;;;;;;;;;;;5061949;28;19916;-90
2022/09/04 19:00:53;;;;;;;;;;;;;;;;;;5041273;28;19917;-89
2022/09/04 19:03:18;;;;;;;;;;;;;;;;;;5053849;28;19923;-90
2022/09/04 19:05:44;;;;;;;;;;;;;;;;;;5055245;28;19909;-89
2022/09/04 19:08:09;;;;;;;;;;;;;;;;;;5070569;28;19913;-89
2022/09/04 19:10:34;;;;;;;;;;;;;;;;;;5060435;28;19919;-89
2022/09/04 19:13:01;;;;;;;;;;;;;;;;;;5069164;28;20370;-90
2022/09/04 19:15:26;;;;;;;;;;;;;;;;;;5055164;28;19916;-89